Forbes Field
KFOE : now visible

Airfield :











YOU CAN JOIN US ON...

 
LOGIN :

Register | Disclaimer

   EN    FR    IT 

 









Legend :    VFR   Marginal VFR   IFR   Intensive IFR   Very Intensive IFR
Visi :
Ceiling :
>= 8 km
>= 3000ft
5 to 8 km
1000 to 3000 ft
1500m to 5 km
500 to 1000 ft
800 to 1500m
200 to 500 ft
< 800m
< 200 ft
Symbols :   Thunderstorms  Fog  Heavy snow  Heavy precipitations  Wind > 20 kt






- Airport Elevation : 1078 ft
- IATA code : FOE


KFOE - Forbes Field

CURRENT METAR :
  • 281253Z 04006KT 10SM OVC010 00/M03 A3010 RMK AO2 SLP201 T00001033

EXPIRED METARs :
  • 281153Z 04007KT 10SM OVC010 00/M03 A3009 RMK AO2 CIG 009V014 SLP198 T00001028 10017 20000 55006
  • 281053Z AUTO 02008KT 10SM OVC011 00/M03 A3009 RMK AO2 SLP196 T00001028

TAF KFOE
Valid from the 28 at 12:00 until the 29 at 12:00 UTC


281124Z 2812/2912 03005KT P6SM OVC011
FM290500 03003KT 3SM BR VCSH OVC011
FM290800 36002KT 2SM -SN OVC008



MET'MAP, your aeronautical weather chart ! - Copyright ORBIFLY December 2007 - Disclaimer

ORBIFLY MET'MAP TEAM :

Programming & Development : Alexandra Zaïnal
Concept & original design : Baudouin d'Aumeries
Assistance for programming : Marc-Olivier Méhu
Technical & hardware support : Manuel Goepfert

Contact : metmap@orbifly.com




SOURCES & CREDITS :

   NOAA       Earth
Advisory